Terminal Aerodrome Forecast
Issued by NWS Wilmington, OH

Current Version | Previous Version | Text Only | Print | Product List | Glossary Off
Versions: 1 2 3 4 5 6 7 8 9 10 11 12 13 14 15 16 17 18 19 20 21 22 23 24 25 26 27 28 29 30 31

000
FTUS41 KILN 290539
TAFCVG
TAF
KCVG 290539Z 2906/3012 00000KT P6SM SKC
     FM290700 00000KT 4SM BR SKC
      TEMPO 2908/2912 2SM BR
     FM291300 25005KT P6SM SCT040 BKN120
     FM291800 28009KT P6SM VCTS BKN040CB
      TEMPO 2919/2921 4SM -TSRA BKN035CB
     FM292300 30006KT P6SM SCT120
     FM300600 34007KT P6SM FEW040=

USA.gov is the U.S. government's official web portal to all federal, state and local government web resources and services.